sensor_id;sensor_type;location;lat;lon;timestamp;P1;durP1;ratioP1;P2;durP2;ratioP2
73816;SDS011;62146;53.232;-1.304;2023-06-10T00:02:01;8.03;;;4.20;;
73816;SDS011;62146;53.232;-1.304;2023-06-10T00:04:28;9.05;;;4.65;;
73816;SDS011;62146;53.232;-1.304;2023-06-10T00:06:54;9.98;;;4.85;;
73816;SDS011;62146;53.232;-1.304;2023-06-10T00:09:21;9.32;;;4.32;;
73816;SDS011;62146;53.232;-1.304;2023-06-10T00:11:49;9.55;;;4.85;;
73816;SDS011;62146;53.232;-1.304;2023-06-10T00:14:15;9.57;;;4.60;;
73816;SDS011;62146;53.232;-1.304;2023-06-10T00:16:42;8.40;;;4.00;;
73816;SDS011;62146;53.232;-1.304;2023-06-10T00:19:11;11.95;;;4.38;;
73816;SDS011;62146;53.232;-1.304;2023-06-10T00:21:40;7.72;;;4.22;;
73816;SDS011;62146;53.232;-1.304;2023-06-10T00:24:07;9.50;;;4.38;;
73816;SDS011;62146;53.232;-1.304;2023-06-10T00:26:40;11.90;;;4.70;;
73816;SDS011;62146;53.232;-1.304;2023-06-10T00:29:07;8.60;;;4.55;;
73816;SDS011;62146;53.232;-1.304;2023-06-10T00:31:35;9.35;;;4.78;;
73816;SDS011;62146;53.232;-1.304;2023-06-10T00:34:03;9.32;;;4.82;;
73816;SDS011;62146;53.232;-1.304;2023-06-10T00:36:30;9.88;;;4.45;;
73816;SDS011;62146;53.232;-1.304;2023-06-10T00:38:56;8.77;;;4.17;;
73816;SDS011;62146;53.232;-1.304;2023-06-10T00:41:23;8.48;;;4.10;;
73816;SDS011;62146;53.232;-1.304;2023-06-10T00:43:50;9.07;;;4.35;;
73816;SDS011;62146;53.232;-1.304;2023-06-10T00:46:16;9.98;;;4.20;;
73816;SDS011;62146;53.232;-1.304;2023-06-10T00:48:44;9.57;;;4.68;;
73816;SDS011;62146;53.232;-1.304;2023-06-10T00:51:11;11.80;;;5.00;;
73816;SDS011;62146;53.232;-1.304;2023-06-10T00:53:41;10.48;;;4.75;;
73816;SDS011;62146;53.232;-1.304;2023-06-10T00:56:08;8.48;;;4.68;;
73816;SDS011;62146;53.232;-1.304;2023-06-10T00:58:35;8.25;;;4.35;;
73816;SDS011;62146;53.232;-1.304;2023-06-10T01:01:03;12.45;;;5.00;;
73816;SDS011;62146;53.232;-1.304;2023-06-10T01:03:30;10.33;;;5.23;;
73816;SDS011;62146;53.232;-1.304;2023-06-10T01:06:45;9.68;;;5.07;;
73816;SDS011;62146;53.232;-1.304;2023-06-10T01:09:09;11.38;;;5.05;;
73816;SDS011;62146;53.232;-1.304;2023-06-10T01:14:56;10.32;;;4.88;;
73816;SDS011;62146;53.232;-1.304;2023-06-10T01:17:25;9.40;;;4.70;;
73816;SDS011;62146;53.232;-1.304;2023-06-10T01:19:54;7.95;;;4.80;;
73816;SDS011;62146;53.232;-1.304;2023-06-10T01:22:25;9.40;;;5.20;;
73816;SDS011;62146;53.232;-1.304;2023-06-10T01:24:55;10.25;;;4.90;;
73816;SDS011;62146;53.232;-1.304;2023-06-10T01:27:26;9.82;;;5.70;;
73816;SDS011;62146;53.232;-1.304;2023-06-10T01:29:59;12.40;;;6.33;;
73816;SDS011;62146;53.232;-1.304;2023-06-10T01:32:34;10.20;;;5.70;;
73816;SDS011;62146;53.232;-1.304;2023-06-10T01:35:06;10.00;;;6.03;;
73816;SDS011;62146;53.232;-1.304;2023-06-10T01:37:35;10.52;;;5.72;;
73816;SDS011;62146;53.232;-1.304;2023-06-10T01:40:05;11.40;;;5.78;;
73816;SDS011;62146;53.232;-1.304;2023-06-10T01:42:32;12.33;;;5.97;;
73816;SDS011;62146;53.232;-1.304;2023-06-10T01:44:59;10.20;;;5.88;;
73816;SDS011;62146;53.232;-1.304;2023-06-10T01:47:26;12.82;;;6.63;;
73816;SDS011;62146;53.232;-1.304;2023-06-10T01:49:52;12.25;;;6.10;;
73816;SDS011;62146;53.232;-1.304;2023-06-10T01:52:19;12.13;;;6.45;;
73816;SDS011;62146;53.232;-1.304;2023-06-10T01:54:46;15.10;;;6.23;;
73816;SDS011;62146;53.232;-1.304;2023-06-10T01:57:12;11.93;;;6.05;;
73816;SDS011;62146;53.232;-1.304;2023-06-10T01:59:39;10.75;;;6.85;;
73816;SDS011;62146;53.232;-1.304;2023-06-10T02:02:05;13.05;;;6.30;;
73816;SDS011;62146;53.232;-1.304;2023-06-10T02:04:32;12.93;;;6.50;;
73816;SDS011;62146;53.232;-1.304;2023-06-10T02:06:59;11.97;;;6.30;;
73816;SDS011;62146;53.232;-1.304;2023-06-10T02:09:30;11.70;;;6.00;;
73816;SDS011;62146;53.232;-1.304;2023-06-10T02:11:57;12.65;;;6.22;;
73816;SDS011;62146;53.232;-1.304;2023-06-10T02:14:24;11.15;;;5.80;;
73816;SDS011;62146;53.232;-1.304;2023-06-10T02:16:51;12.40;;;6.25;;
73816;SDS011;62146;53.232;-1.304;2023-06-10T02:19:18;10.67;;;5.90;;
73816;SDS011;62146;53.232;-1.304;2023-06-10T02:21:45;10.57;;;6.00;;
73816;SDS011;62146;53.232;-1.304;2023-06-10T02:24:11;10.90;;;6.18;;
73816;SDS011;62146;53.232;-1.304;2023-06-10T02:26:38;10.65;;;6.25;;
73816;SDS011;62146;53.232;-1.304;2023-06-10T02:29:04;10.43;;;6.00;;
73816;SDS011;62146;53.232;-1.304;2023-06-10T02:31:31;11.50;;;6.03;;
73816;SDS011;62146;53.232;-1.304;2023-06-10T02:33:58;13.25;;;6.55;;
73816;SDS011;62146;53.232;-1.304;2023-06-10T02:36:24;11.10;;;6.00;;
73816;SDS011;62146;53.232;-1.304;2023-06-10T02:38:53;13.50;;;6.05;;
73816;SDS011;62146;53.232;-1.304;2023-06-10T02:41:20;11.27;;;6.10;;
73816;SDS011;62146;53.232;-1.304;2023-06-10T02:43:47;13.63;;;6.07;;
73816;SDS011;62146;53.232;-1.304;2023-06-10T02:46:14;11.05;;;5.70;;
73816;SDS011;62146;53.232;-1.304;2023-06-10T02:48:42;11.85;;;6.32;;
73816;SDS011;62146;53.232;-1.304;2023-06-10T02:51:12;11.60;;;6.53;;
73816;SDS011;62146;53.232;-1.304;2023-06-10T02:53:39;10.63;;;6.30;;
73816;SDS011;62146;53.232;-1.304;2023-06-10T02:56:05;11.07;;;6.33;;
73816;SDS011;62146;53.232;-1.304;2023-06-10T02:58:32;11.95;;;6.53;;
73816;SDS011;62146;53.232;-1.304;2023-06-10T03:00:58;13.13;;;6.47;;
73816;SDS011;62146;53.232;-1.304;2023-06-10T03:03:25;12.70;;;6.40;;
73816;SDS011;62146;53.232;-1.304;2023-06-10T03:05:53;11.68;;;6.30;;
73816;SDS011;62146;53.232;-1.304;2023-06-10T03:08:20;14.40;;;6.83;;
73816;SDS011;62146;53.232;-1.304;2023-06-10T03:10:47;13.48;;;6.53;;
73816;SDS011;62146;53.232;-1.304;2023-06-10T03:13:13;13.20;;;7.20;;
73816;SDS011;62146;53.232;-1.304;2023-06-10T03:15:40;15.88;;;6.95;;
73816;SDS011;62146;53.232;-1.304;2023-06-10T03:18:07;13.55;;;6.88;;
73816;SDS011;62146;53.232;-1.304;2023-06-10T03:20:34;13.70;;;6.87;;
73816;SDS011;62146;53.232;-1.304;2023-06-10T03:23:06;12.25;;;7.20;;
73816;SDS011;62146;53.232;-1.304;2023-06-10T03:25:32;16.13;;;7.20;;
73816;SDS011;62146;53.232;-1.304;2023-06-10T03:27:59;13.93;;;6.80;;
73816;SDS011;62146;53.232;-1.304;2023-06-10T03:30:26;13.43;;;6.75;;
73816;SDS011;62146;53.232;-1.304;2023-06-10T03:32:56;14.73;;;7.03;;
73816;SDS011;62146;53.232;-1.304;2023-06-10T03:35:22;13.68;;;6.80;;
73816;SDS011;62146;53.232;-1.304;2023-06-10T03:37:49;13.93;;;6.75;;
73816;SDS011;62146;53.232;-1.304;2023-06-10T03:40:16;12.80;;;6.90;;
73816;SDS011;62146;53.232;-1.304;2023-06-10T03:42:42;13.00;;;7.05;;
73816;SDS011;62146;53.232;-1.304;2023-06-10T03:45:10;13.83;;;7.50;;
73816;SDS011;62146;53.232;-1.304;2023-06-10T03:47:37;11.95;;;7.03;;
73816;SDS011;62146;53.232;-1.304;2023-06-10T03:50:04;14.60;;;6.78;;
73816;SDS011;62146;53.232;-1.304;2023-06-10T03:52:31;12.82;;;7.05;;
73816;SDS011;62146;53.232;-1.304;2023-06-10T03:54:58;12.93;;;6.85;;
73816;SDS011;62146;53.232;-1.304;2023-06-10T03:57:24;14.40;;;7.13;;
73816;SDS011;62146;53.232;-1.304;2023-06-10T03:59:51;13.88;;;7.00;;
73816;SDS011;62146;53.232;-1.304;2023-06-10T04:02:18;12.40;;;6.80;;
73816;SDS011;62146;53.232;-1.304;2023-06-10T04:04:45;13.10;;;6.50;;
73816;SDS011;62146;53.232;-1.304;2023-06-10T04:07:12;13.63;;;6.88;;
73816;SDS011;62146;53.232;-1.304;2023-06-10T04:09:38;12.40;;;6.50;;
73816;SDS011;62146;53.232;-1.304;2023-06-10T04:12:05;13.73;;;6.40;;
73816;SDS011;62146;53.232;-1.304;2023-06-10T04:14:36;13.25;;;6.30;;
73816;SDS011;62146;53.232;-1.304;2023-06-10T04:17:04;15.32;;;6.68;;
73816;SDS011;62146;53.232;-1.304;2023-06-10T04:19:35;10.07;;;5.90;;
73816;SDS011;62146;53.232;-1.304;2023-06-10T04:22:01;12.47;;;6.37;;
73816;SDS011;62146;53.232;-1.304;2023-06-10T04:24:31;12.93;;;6.00;;
73816;SDS011;62146;53.232;-1.304;2023-06-10T04:26:58;12.32;;;6.35;;
73816;SDS011;62146;53.232;-1.304;2023-06-10T04:29:24;13.27;;;6.53;;
73816;SDS011;62146;53.232;-1.304;2023-06-10T04:31:51;12.07;;;6.50;;
73816;SDS011;62146;53.232;-1.304;2023-06-10T04:34:18;10.20;;;6.10;;
73816;SDS011;62146;53.232;-1.304;2023-06-10T04:36:44;14.35;;;6.57;;
73816;SDS011;62146;53.232;-1.304;2023-06-10T04:39:11;13.88;;;6.05;;
73816;SDS011;62146;53.232;-1.304;2023-06-10T04:41:38;10.65;;;5.53;;
73816;SDS011;62146;53.232;-1.304;2023-06-10T04:44:04;12.02;;;6.65;;
73816;SDS011;62146;53.232;-1.304;2023-06-10T04:46:31;12.00;;;6.20;;
73816;SDS011;62146;53.232;-1.304;2023-06-10T04:48:58;12.88;;;6.28;;
73816;SDS011;62146;53.232;-1.304;2023-06-10T04:51:24;12.05;;;5.85;;
73816;SDS011;62146;53.232;-1.304;2023-06-10T04:53:52;11.77;;;6.05;;
73816;SDS011;62146;53.232;-1.304;2023-06-10T04:56:18;13.02;;;6.25;;
73816;SDS011;62146;53.232;-1.304;2023-06-10T04:58:46;12.40;;;5.87;;
73816;SDS011;62146;53.232;-1.304;2023-06-10T05:01:12;12.18;;;5.97;;
73816;SDS011;62146;53.232;-1.304;2023-06-10T05:03:39;11.98;;;5.93;;
73816;SDS011;62146;53.232;-1.304;2023-06-10T05:06:06;13.55;;;6.13;;
73816;SDS011;62146;53.232;-1.304;2023-06-10T05:08:33;11.85;;;6.47;;
73816;SDS011;62146;53.232;-1.304;2023-06-10T05:11:00;14.60;;;6.47;;
73816;SDS011;62146;53.232;-1.304;2023-06-10T05:13:26;13.27;;;6.13;;
73816;SDS011;62146;53.232;-1.304;2023-06-10T05:15:53;11.63;;;6.32;;
73816;SDS011;62146;53.232;-1.304;2023-06-10T05:18:20;11.27;;;5.72;;
73816;SDS011;62146;53.232;-1.304;2023-06-10T05:20:46;12.18;;;6.43;;
73816;SDS011;62146;53.232;-1.304;2023-06-10T05:23:13;14.07;;;5.77;;
73816;SDS011;62146;53.232;-1.304;2023-06-10T05:25:39;13.05;;;5.97;;
73816;SDS011;62146;53.232;-1.304;2023-06-10T05:28:07;11.27;;;6.13;;
73816;SDS011;62146;53.232;-1.304;2023-06-10T05:30:40;12.82;;;6.45;;
73816;SDS011;62146;53.232;-1.304;2023-06-10T05:33:07;12.27;;;6.38;;
73816;SDS011;62146;53.232;-1.304;2023-06-10T05:35:33;11.63;;;6.27;;
73816;SDS011;62146;53.232;-1.304;2023-06-10T05:38:00;15.20;;;6.18;;
73816;SDS011;62146;53.232;-1.304;2023-06-10T05:40:29;14.13;;;6.40;;
73816;SDS011;62146;53.232;-1.304;2023-06-10T05:42:55;15.32;;;6.57;;
73816;SDS011;62146;53.232;-1.304;2023-06-10T05:45:22;13.65;;;6.55;;
73816;SDS011;62146;53.232;-1.304;2023-06-10T05:47:48;11.97;;;6.10;;
73816;SDS011;62146;53.232;-1.304;2023-06-10T05:50:15;14.90;;;6.50;;
73816;SDS011;62146;53.232;-1.304;2023-06-10T05:52:42;11.77;;;6.43;;
73816;SDS011;62146;53.232;-1.304;2023-06-10T05:55:09;16.02;;;7.07;;
73816;SDS011;62146;53.232;-1.304;2023-06-10T05:57:36;12.43;;;6.88;;
73816;SDS011;62146;53.232;-1.304;2023-06-10T06:00:03;11.80;;;6.20;;
73816;SDS011;62146;53.232;-1.304;2023-06-10T06:02:30;12.95;;;6.72;;
73816;SDS011;62146;53.232;-1.304;2023-06-10T06:04:57;13.15;;;6.45;;
73816;SDS011;62146;53.232;-1.304;2023-06-10T06:07:24;14.02;;;7.13;;
73816;SDS011;62146;53.232;-1.304;2023-06-10T06:09:50;13.73;;;6.90;;
73816;SDS011;62146;53.232;-1.304;2023-06-10T06:12:17;12.67;;;6.23;;
73816;SDS011;62146;53.232;-1.304;2023-06-10T06:14:43;10.38;;;6.38;;
73816;SDS011;62146;53.232;-1.304;2023-06-10T06:17:11;15.05;;;6.60;;
73816;SDS011;62146;53.232;-1.304;2023-06-10T06:19:37;14.95;;;6.80;;
73816;SDS011;62146;53.232;-1.304;2023-06-10T06:22:04;13.40;;;6.43;;
73816;SDS011;62146;53.232;-1.304;2023-06-10T06:24:30;17.93;;;6.90;;
73816;SDS011;62146;53.232;-1.304;2023-06-10T06:26:57;13.98;;;6.30;;
73816;SDS011;62146;53.232;-1.304;2023-06-10T06:29:24;12.00;;;6.80;;
73816;SDS011;62146;53.232;-1.304;2023-06-10T06:31:51;14.43;;;6.80;;
73816;SDS011;62146;53.232;-1.304;2023-06-10T06:34:17;13.10;;;6.53;;
73816;SDS011;62146;53.232;-1.304;2023-06-10T06:36:44;15.20;;;7.17;;
73816;SDS011;62146;53.232;-1.304;2023-06-10T06:39:11;13.55;;;6.35;;
73816;SDS011;62146;53.232;-1.304;2023-06-10T06:41:37;11.77;;;6.22;;
73816;SDS011;62146;53.232;-1.304;2023-06-10T06:44:04;14.70;;;6.65;;
73816;SDS011;62146;53.232;-1.304;2023-06-10T06:46:30;13.68;;;6.97;;
73816;SDS011;62146;53.232;-1.304;2023-06-10T06:48:57;14.30;;;6.93;;
73816;SDS011;62146;53.232;-1.304;2023-06-10T06:51:24;17.92;;;7.07;;
73816;SDS011;62146;53.232;-1.304;2023-06-10T06:53:50;13.55;;;6.88;;
73816;SDS011;62146;53.232;-1.304;2023-06-10T06:56:17;13.50;;;6.80;;
73816;SDS011;62146;53.232;-1.304;2023-06-10T06:58:44;14.05;;;6.32;;
73816;SDS011;62146;53.232;-1.304;2023-06-10T07:01:10;12.27;;;6.90;;
73816;SDS011;62146;53.232;-1.304;2023-06-10T07:03:37;13.45;;;6.50;;
73816;SDS011;62146;53.232;-1.304;2023-06-10T07:06:03;12.60;;;6.40;;
73816;SDS011;62146;53.232;-1.304;2023-06-10T07:08:30;14.05;;;6.95;;
73816;SDS011;62146;53.232;-1.304;2023-06-10T07:10:57;12.20;;;6.45;;
73816;SDS011;62146;53.232;-1.304;2023-06-10T07:13:23;10.97;;;6.07;;
73816;SDS011;62146;53.232;-1.304;2023-06-10T07:15:50;12.15;;;6.07;;
73816;SDS011;62146;53.232;-1.304;2023-06-10T07:18:16;13.40;;;6.57;;
73816;SDS011;62146;53.232;-1.304;2023-06-10T07:20:43;10.15;;;6.35;;
73816;SDS011;62146;53.232;-1.304;2023-06-10T07:23:10;13.40;;;6.70;;
73816;SDS011;62146;53.232;-1.304;2023-06-10T07:25:37;13.13;;;6.47;;
73816;SDS011;62146;53.232;-1.304;2023-06-10T07:28:03;10.65;;;5.90;;
73816;SDS011;62146;53.232;-1.304;2023-06-10T07:30:30;12.77;;;6.55;;
73816;SDS011;62146;53.232;-1.304;2023-06-10T07:32:56;13.73;;;6.35;;
73816;SDS011;62146;53.232;-1.304;2023-06-10T07:35:23;10.57;;;6.20;;
73816;SDS011;62146;53.232;-1.304;2023-06-10T07:37:49;13.63;;;6.17;;
73816;SDS011;62146;53.232;-1.304;2023-06-10T07:40:16;10.48;;;5.95;;
73816;SDS011;62146;53.232;-1.304;2023-06-10T07:42:43;12.20;;;6.40;;
73816;SDS011;62146;53.232;-1.304;2023-06-10T07:45:09;13.18;;;5.90;;
73816;SDS011;62146;53.232;-1.304;2023-06-10T07:47:37;13.27;;;5.72;;
73816;SDS011;62146;53.232;-1.304;2023-06-10T07:50:03;13.43;;;6.00;;
73816;SDS011;62146;53.232;-1.304;2023-06-10T07:52:30;12.05;;;6.22;;
73816;SDS011;62146;53.232;-1.304;2023-06-10T07:54:57;10.95;;;5.75;;
73816;SDS011;62146;53.232;-1.304;2023-06-10T07:57:24;12.30;;;6.53;;
73816;SDS011;62146;53.232;-1.304;2023-06-10T07:59:50;14.70;;;6.15;;
73816;SDS011;62146;53.232;-1.304;2023-06-10T08:02:17;10.87;;;5.77;;
73816;SDS011;62146;53.232;-1.304;2023-06-10T08:04:43;10.57;;;5.80;;
73816;SDS011;62146;53.232;-1.304;2023-06-10T08:07:10;11.93;;;5.63;;
73816;SDS011;62146;53.232;-1.304;2023-06-10T08:09:37;11.95;;;5.50;;
73816;SDS011;62146;53.232;-1.304;2023-06-10T08:12:03;9.73;;;5.75;;
73816;SDS011;62146;53.232;-1.304;2023-06-10T08:14:30;9.33;;;5.40;;
73816;SDS011;62146;53.232;-1.304;2023-06-10T08:16:57;11.57;;;5.70;;
73816;SDS011;62146;53.232;-1.304;2023-06-10T08:19:24;11.35;;;5.70;;
73816;SDS011;62146;53.232;-1.304;2023-06-10T08:21:50;11.93;;;5.82;;
73816;SDS011;62146;53.232;-1.304;2023-06-10T08:24:17;10.80;;;5.43;;
73816;SDS011;62146;53.232;-1.304;2023-06-10T08:26:45;9.53;;;5.33;;
73816;SDS011;62146;53.232;-1.304;2023-06-10T08:29:11;9.57;;;5.45;;
73816;SDS011;62146;53.232;-1.304;2023-06-10T08:31:42;10.48;;;5.10;;
73816;SDS011;62146;53.232;-1.304;2023-06-10T08:34:09;9.65;;;4.72;;
73816;SDS011;62146;53.232;-1.304;2023-06-10T08:36:36;10.65;;;5.55;;
73816;SDS011;62146;53.232;-1.304;2023-06-10T08:39:03;9.77;;;5.40;;
73816;SDS011;62146;53.232;-1.304;2023-06-10T08:41:30;10.45;;;4.90;;
73816;SDS011;62146;53.232;-1.304;2023-06-10T08:46:58;9.23;;;4.88;;
73816;SDS011;62146;53.232;-1.304;2023-06-10T08:49:27;9.65;;;4.95;;
73816;SDS011;62146;53.232;-1.304;2023-06-10T08:51:59;10.23;;;4.60;;
73816;SDS011;62146;53.232;-1.304;2023-06-10T08:54:30;11.77;;;5.05;;
73816;SDS011;62146;53.232;-1.304;2023-06-10T08:56:59;10.65;;;4.57;;
73816;SDS011;62146;53.232;-1.304;2023-06-10T08:59:28;10.48;;;4.68;;
73816;SDS011;62146;53.232;-1.304;2023-06-10T09:01:55;8.65;;;4.28;;
73816;SDS011;62146;53.232;-1.304;2023-06-10T09:04:23;11.37;;;4.30;;
73816;SDS011;62146;53.232;-1.304;2023-06-10T09:06:50;9.07;;;4.63;;
73816;SDS011;62146;53.232;-1.304;2023-06-10T09:09:18;11.23;;;4.90;;
73816;SDS011;62146;53.232;-1.304;2023-06-10T09:11:46;10.80;;;4.80;;
73816;SDS011;62146;53.232;-1.304;2023-06-10T09:14:13;8.75;;;4.65;;
73816;SDS011;62146;53.232;-1.304;2023-06-10T09:16:40;10.80;;;4.57;;
73816;SDS011;62146;53.232;-1.304;2023-06-10T09:19:08;11.45;;;4.55;;
73816;SDS011;62146;53.232;-1.304;2023-06-10T09:21:34;10.73;;;5.28;;
73816;SDS011;62146;53.232;-1.304;2023-06-10T09:24:05;10.65;;;4.60;;
73816;SDS011;62146;53.232;-1.304;2023-06-10T09:26:31;10.27;;;4.93;;
73816;SDS011;62146;53.232;-1.304;2023-06-10T09:29:05;9.93;;;4.40;;
73816;SDS011;62146;53.232;-1.304;2023-06-10T09:31:34;8.73;;;4.40;;
73816;SDS011;62146;53.232;-1.304;2023-06-10T09:34:09;10.20;;;4.60;;
73816;SDS011;62146;53.232;-1.304;2023-06-10T09:36:37;10.55;;;4.93;;
73816;SDS011;62146;53.232;-1.304;2023-06-10T09:39:04;11.35;;;5.05;;
73816;SDS011;62146;53.232;-1.304;2023-06-10T09:41:35;10.07;;;4.87;;
73816;SDS011;62146;53.232;-1.304;2023-06-10T09:44:02;10.30;;;4.82;;
73816;SDS011;62146;53.232;-1.304;2023-06-10T09:46:35;10.32;;;4.80;;
73816;SDS011;62146;53.232;-1.304;2023-06-10T09:49:02;10.02;;;5.25;;
73816;SDS011;62146;53.232;-1.304;2023-06-10T09:51:28;12.57;;;5.18;;
73816;SDS011;62146;53.232;-1.304;2023-06-10T09:53:55;10.93;;;5.27;;
73816;SDS011;62146;53.232;-1.304;2023-06-10T09:56:21;10.73;;;4.88;;
73816;SDS011;62146;53.232;-1.304;2023-06-10T09:58:59;10.38;;;5.22;;
73816;SDS011;62146;53.232;-1.304;2023-06-10T10:01:26;10.70;;;5.22;;
73816;SDS011;62146;53.232;-1.304;2023-06-10T10:03:52;8.55;;;5.13;;
73816;SDS011;62146;53.232;-1.304;2023-06-10T10:06:20;10.13;;;4.80;;
73816;SDS011;62146;53.232;-1.304;2023-06-10T10:08:47;12.10;;;5.45;;
73816;SDS011;62146;53.232;-1.304;2023-06-10T10:11:20;10.30;;;5.22;;
73816;SDS011;62146;53.232;-1.304;2023-06-10T10:13:52;9.77;;;4.90;;
73816;SDS011;62146;53.232;-1.304;2023-06-10T10:16:20;9.57;;;5.20;;
73816;SDS011;62146;53.232;-1.304;2023-06-10T10:18:52;10.53;;;5.23;;
73816;SDS011;62146;53.232;-1.304;2023-06-10T10:21:26;9.27;;;5.00;;
73816;SDS011;62146;53.232;-1.304;2023-06-10T10:23:59;11.05;;;5.22;;
73816;SDS011;62146;53.232;-1.304;2023-06-10T10:26:31;8.50;;;4.75;;
73816;SDS011;62146;53.232;-1.304;2023-06-10T10:29:07;10.40;;;4.90;;
73816;SDS011;62146;53.232;-1.304;2023-06-10T10:31:37;9.77;;;5.30;;
73816;SDS011;62146;53.232;-1.304;2023-06-10T10:34:06;10.35;;;5.20;;
73816;SDS011;62146;53.232;-1.304;2023-06-10T10:36:35;9.57;;;5.07;;
73816;SDS011;62146;53.232;-1.304;2023-06-10T10:39:04;11.35;;;5.60;;
73816;SDS011;62146;53.232;-1.304;2023-06-10T10:41:31;10.43;;;5.20;;
73816;SDS011;62146;53.232;-1.304;2023-06-10T10:43:59;8.80;;;5.17;;
73816;SDS011;62146;53.232;-1.304;2023-06-10T10:46:27;10.38;;;5.13;;
73816;SDS011;62146;53.232;-1.304;2023-06-10T10:48:53;9.77;;;5.15;;
73816;SDS011;62146;53.232;-1.304;2023-06-10T10:51:22;11.75;;;5.25;;
73816;SDS011;62146;53.232;-1.304;2023-06-10T10:56:56;9.37;;;5.17;;
73816;SDS011;62146;53.232;-1.304;2023-06-10T11:02:18;10.35;;;5.43;;
73816;SDS011;62146;53.232;-1.304;2023-06-10T11:04:58;11.00;;;5.25;;
73816;SDS011;62146;53.232;-1.304;2023-06-10T11:07:29;10.32;;;5.25;;
73816;SDS011;62146;53.232;-1.304;2023-06-10T11:12:41;10.93;;;5.43;;
73816;SDS011;62146;53.232;-1.304;2023-06-10T11:15:07;12.63;;;6.05;;
73816;SDS011;62146;53.232;-1.304;2023-06-10T11:17:34;10.18;;;5.38;;
73816;SDS011;62146;53.232;-1.304;2023-06-10T11:20:01;10.88;;;5.53;;
73816;SDS011;62146;53.232;-1.304;2023-06-10T11:22:29;11.80;;;5.67;;
73816;SDS011;62146;53.232;-1.304;2023-06-10T11:24:55;13.23;;;5.72;;
73816;SDS011;62146;53.232;-1.304;2023-06-10T11:27:25;10.38;;;5.55;;
73816;SDS011;62146;53.232;-1.304;2023-06-10T11:29:54;9.40;;;4.97;;
73816;SDS011;62146;53.232;-1.304;2023-06-10T11:32:30;12.60;;;5.68;;
73816;SDS011;62146;53.232;-1.304;2023-06-10T11:35:04;11.20;;;5.37;;
73816;SDS011;62146;53.232;-1.304;2023-06-10T11:37:31;11.45;;;5.40;;
73816;SDS011;62146;53.232;-1.304;2023-06-10T11:39:58;11.35;;;5.57;;
73816;SDS011;62146;53.232;-1.304;2023-06-10T11:42:25;12.88;;;5.60;;
73816;SDS011;62146;53.232;-1.304;2023-06-10T11:44:52;11.25;;;6.00;;
73816;SDS011;62146;53.232;-1.304;2023-06-10T11:47:20;12.93;;;5.60;;
73816;SDS011;62146;53.232;-1.304;2023-06-10T11:49:57;11.55;;;6.05;;
73816;SDS011;62146;53.232;-1.304;2023-06-10T11:52:28;9.93;;;5.82;;
73816;SDS011;62146;53.232;-1.304;2023-06-10T11:54:57;12.88;;;6.25;;
73816;SDS011;62146;53.232;-1.304;2023-06-10T11:57:24;13.90;;;6.82;;
73816;SDS011;62146;53.232;-1.304;2023-06-10T11:59:50;12.47;;;6.23;;
73816;SDS011;62146;53.232;-1.304;2023-06-10T12:02:17;10.80;;;6.57;;
73816;SDS011;62146;53.232;-1.304;2023-06-10T12:04:45;11.43;;;6.28;;
73816;SDS011;62146;53.232;-1.304;2023-06-10T12:07:18;12.68;;;6.32;;
73816;SDS011;62146;53.232;-1.304;2023-06-10T12:09:46;11.75;;;6.25;;
73816;SDS011;62146;53.232;-1.304;2023-06-10T12:12:13;11.40;;;6.40;;
73816;SDS011;62146;53.232;-1.304;2023-06-10T12:20:01;12.40;;;6.50;;
73816;SDS011;62146;53.232;-1.304;2023-06-10T12:22:39;12.93;;;6.55;;
73816;SDS011;62146;53.232;-1.304;2023-06-10T12:25:07;12.07;;;6.90;;
73816;SDS011;62146;53.232;-1.304;2023-06-10T12:27:36;10.93;;;6.43;;
73816;SDS011;62146;53.232;-1.304;2023-06-10T12:30:04;11.98;;;6.95;;
73816;SDS011;62146;53.232;-1.304;2023-06-10T12:32:43;12.68;;;6.75;;
73816;SDS011;62146;53.232;-1.304;2023-06-10T12:35:17;13.10;;;6.55;;
73816;SDS011;62146;53.232;-1.304;2023-06-10T12:40:34;10.05;;;6.65;;
73816;SDS011;62146;53.232;-1.304;2023-06-10T12:43:05;11.35;;;6.80;;
73816;SDS011;62146;53.232;-1.304;2023-06-10T12:45:33;11.68;;;6.90;;
73816;SDS011;62146;53.232;-1.304;2023-06-10T12:48:19;13.77;;;7.20;;
73816;SDS011;62146;53.232;-1.304;2023-06-10T12:50:51;13.23;;;7.27;;
73816;SDS011;62146;53.232;-1.304;2023-06-10T12:53:22;12.13;;;6.90;;
73816;SDS011;62146;53.232;-1.304;2023-06-10T12:55:50;12.38;;;7.13;;
73816;SDS011;62146;53.232;-1.304;2023-06-10T12:58:17;12.48;;;6.90;;
73816;SDS011;62146;53.232;-1.304;2023-06-10T13:00:45;11.98;;;7.45;;
73816;SDS011;62146;53.232;-1.304;2023-06-10T13:03:12;11.30;;;6.90;;
73816;SDS011;62146;53.232;-1.304;2023-06-10T13:05:39;11.43;;;7.15;;
73816;SDS011;62146;53.232;-1.304;2023-06-10T13:08:06;12.95;;;6.95;;
73816;SDS011;62146;53.232;-1.304;2023-06-10T13:10:34;10.80;;;6.70;;
73816;SDS011;62146;53.232;-1.304;2023-06-10T13:13:01;12.43;;;6.70;;
73816;SDS011;62146;53.232;-1.304;2023-06-10T13:15:28;10.97;;;6.87;;
73816;SDS011;62146;53.232;-1.304;2023-06-10T13:17:55;11.90;;;7.40;;
73816;SDS011;62146;53.232;-1.304;2023-06-10T13:20:22;10.75;;;7.32;;
73816;SDS011;62146;53.232;-1.304;2023-06-10T13:22:48;12.02;;;7.18;;
73816;SDS011;62146;53.232;-1.304;2023-06-10T13:25:15;11.57;;;7.15;;
73816;SDS011;62146;53.232;-1.304;2023-06-10T13:27:42;10.33;;;6.57;;
73816;SDS011;62146;53.232;-1.304;2023-06-10T13:30:09;11.02;;;7.22;;
73816;SDS011;62146;53.232;-1.304;2023-06-10T13:32:37;9.98;;;6.88;;
73816;SDS011;62146;53.232;-1.304;2023-06-10T13:35:04;10.82;;;7.20;;
73816;SDS011;62146;53.232;-1.304;2023-06-10T13:37:32;10.52;;;7.07;;
73816;SDS011;62146;53.232;-1.304;2023-06-10T13:40:00;10.00;;;7.30;;
73816;SDS011;62146;53.232;-1.304;2023-06-10T13:42:28;10.23;;;6.93;;
73816;SDS011;62146;53.232;-1.304;2023-06-10T13:44:55;10.70;;;7.20;;
73816;SDS011;62146;53.232;-1.304;2023-06-10T13:47:23;9.77;;;7.30;;
73816;SDS011;62146;53.232;-1.304;2023-06-10T13:49:50;9.88;;;7.35;;
73816;SDS011;62146;53.232;-1.304;2023-06-10T13:52:17;11.53;;;6.40;;
73816;SDS011;62146;53.232;-1.304;2023-06-10T13:54:44;12.65;;;6.35;;
73816;SDS011;62146;53.232;-1.304;2023-06-10T13:57:11;10.15;;;6.18;;
73816;SDS011;62146;53.232;-1.304;2023-06-10T13:59:37;13.43;;;6.50;;
73816;SDS011;62146;53.232;-1.304;2023-06-10T14:02:04;9.48;;;6.05;;
73816;SDS011;62146;53.232;-1.304;2023-06-10T14:04:31;10.40;;;5.93;;
73816;SDS011;62146;53.232;-1.304;2023-06-10T14:06:58;16.70;;;6.13;;
73816;SDS011;62146;53.232;-1.304;2023-06-10T14:09:25;9.45;;;5.70;;
73816;SDS011;62146;53.232;-1.304;2023-06-10T14:11:51;9.73;;;6.00;;
73816;SDS011;62146;53.232;-1.304;2023-06-10T14:14:18;11.13;;;6.13;;
73816;SDS011;62146;53.232;-1.304;2023-06-10T14:16:45;15.67;;;5.93;;
73816;SDS011;62146;53.232;-1.304;2023-06-10T14:19:12;11.15;;;6.20;;
73816;SDS011;62146;53.232;-1.304;2023-06-10T14:21:39;8.45;;;5.82;;
73816;SDS011;62146;53.232;-1.304;2023-06-10T14:24:06;10.15;;;6.70;;
73816;SDS011;62146;53.232;-1.304;2023-06-10T14:26:34;13.27;;;6.60;;
73816;SDS011;62146;53.232;-1.304;2023-06-10T14:29:01;9.37;;;5.63;;
73816;SDS011;62146;53.232;-1.304;2023-06-10T14:31:28;9.32;;;5.75;;
73816;SDS011;62146;53.232;-1.304;2023-06-10T14:33:55;8.95;;;6.05;;
73816;SDS011;62146;53.232;-1.304;2023-06-10T14:36:22;10.65;;;5.90;;
73816;SDS011;62146;53.232;-1.304;2023-06-10T14:38:49;9.13;;;6.00;;
73816;SDS011;62146;53.232;-1.304;2023-06-10T14:41:16;9.53;;;6.03;;
73816;SDS011;62146;53.232;-1.304;2023-06-10T14:43:42;11.50;;;6.40;;
73816;SDS011;62146;53.232;-1.304;2023-06-10T14:46:09;10.15;;;6.60;;
73816;SDS011;62146;53.232;-1.304;2023-06-10T14:48:36;12.95;;;6.75;;
73816;SDS011;62146;53.232;-1.304;2023-06-10T14:51:02;9.90;;;6.53;;